createdAt,value
2022-12-26T00:02:04.008Z,5.90
2022-12-26T00:04:52.376Z,5.80
2022-12-26T00:07:17.484Z,5.80
2022-12-26T00:09:44.235Z,5.70
2022-12-26T00:12:10.858Z,5.70
2022-12-26T00:14:38.614Z,5.80
2022-12-26T00:17:05.186Z,5.80
2022-12-26T00:19:31.790Z,5.80
2022-12-26T00:21:58.344Z,5.80
2022-12-26T00:24:24.909Z,5.90
2022-12-26T00:26:51.513Z,5.90
2022-12-26T00:29:18.104Z,5.90
2022-12-26T00:31:44.738Z,6.00
2022-12-26T00:34:11.397Z,6.00
2022-12-26T00:36:37.997Z,6.00
2022-12-26T00:39:04.728Z,6.00
2022-12-26T00:41:32.045Z,6.00
2022-12-26T00:43:58.767Z,5.90
2022-12-26T00:46:26.287Z,5.90
2022-12-26T00:48:53.266Z,5.80
2022-12-26T00:51:20.111Z,5.80
2022-12-26T00:53:46.852Z,5.90
2022-12-26T00:56:13.583Z,5.90
2022-12-26T00:58:41.927Z,5.90
2022-12-26T01:01:20.914Z,6.00
2022-12-26T01:03:48.962Z,5.90
2022-12-26T01:06:16.528Z,5.90
2022-12-26T01:08:43.813Z,5.90
2022-12-26T01:11:13.041Z,5.90
2022-12-26T01:13:39.895Z,5.80
2022-12-26T01:16:07.759Z,5.70
2022-12-26T01:18:35.541Z,5.70
2022-12-26T01:21:06.851Z,5.70
2022-12-26T01:23:33.650Z,5.70
2022-12-26T01:26:18.900Z,5.70
2022-12-26T01:28:47.970Z,5.60
2022-12-26T01:31:14.687Z,5.50
2022-12-26T01:33:41.364Z,5.50
2022-12-26T01:36:08.226Z,5.50
2022-12-26T01:38:35.197Z,5.50
2022-12-26T01:41:16.901Z,5.60
2022-12-26T01:43:58.397Z,5.70
2022-12-26T01:46:43.904Z,5.70
2022-12-26T01:49:18.823Z,5.80
2022-12-26T01:51:51.907Z,5.80
2022-12-26T01:54:40.129Z,5.70
2022-12-26T01:57:13.131Z,5.70
2022-12-26T01:59:41.609Z,5.80
2022-12-26T02:02:09.552Z,5.70
2022-12-26T02:05:01.919Z,5.70
2022-12-26T02:07:28.921Z,5.60
2022-12-26T02:09:55.610Z,5.60
2022-12-26T02:12:34.164Z,5.60
2022-12-26T02:15:10.828Z,5.60
2022-12-26T02:17:39.037Z,5.60
2022-12-26T02:20:23.734Z,5.60
2022-12-26T02:23:08.520Z,5.60
2022-12-26T02:26:09.507Z,5.60
2022-12-26T02:29:08.180Z,5.60
2022-12-26T02:32:05.697Z,5.50
2022-12-26T02:35:06.641Z,5.50
2022-12-26T02:37:53.520Z,5.50
2022-12-26T02:40:28.070Z,5.60
2022-12-26T02:43:10.696Z,5.50
2022-12-26T02:46:14.842Z,5.40
2022-12-26T02:48:41.390Z,5.40
2022-12-26T02:51:46.185Z,5.40
2022-12-26T02:54:54.505Z,5.40
2022-12-26T02:57:47.898Z,5.40
2022-12-26T03:00:39.006Z,5.40
2022-12-26T03:03:37.620Z,5.40
2022-12-26T03:06:33.110Z,5.40
2022-12-26T03:09:26.229Z,5.50
2022-12-26T03:12:15.900Z,5.50
2022-12-26T03:14:51.245Z,5.60
2022-12-26T03:17:33.593Z,5.60
2022-12-26T03:20:05.877Z,5.60
2022-12-26T03:22:42.013Z,5.70
2022-12-26T03:25:31.370Z,5.70
2022-12-26T03:27:58.237Z,5.70
2022-12-26T03:30:43.678Z,5.80
2022-12-26T03:33:30.555Z,5.80
2022-12-26T03:35:58.349Z,5.70
2022-12-26T03:38:33.899Z,5.80
2022-12-26T03:41:32.936Z,5.70
2022-12-26T03:44:28.157Z,5.70
2022-12-26T03:47:22.598Z,5.60
2022-12-26T03:50:15.304Z,5.60
2022-12-26T03:53:23.150Z,5.50
2022-12-26T03:56:17.744Z,5.50
2022-12-26T03:59:17.097Z,5.40
2022-12-26T04:02:05.371Z,5.40
2022-12-26T04:04:53.945Z,5.30
2022-12-26T04:07:56.569Z,5.30
2022-12-26T04:10:55.122Z,5.20
2022-12-26T04:13:48.017Z,5.30
2022-12-26T04:16:42.695Z,5.20
2022-12-26T04:19:25.546Z,5.10
2022-12-26T04:22:33.402Z,5.20
2022-12-26T04:25:49.680Z,5.10
2022-12-26T04:28:30.234Z,5.20
2022-12-26T04:31:20.074Z,5.20
2022-12-26T04:34:11.545Z,5.30
2022-12-26T04:37:22.302Z,5.30
2022-12-26T04:40:10.309Z,5.20
2022-12-26T04:42:57.451Z,5.30
2022-12-26T04:45:24.856Z,5.20
2022-12-26T04:48:10.121Z,5.20
2022-12-26T04:50:36.997Z,5.10
2022-12-26T04:53:03.642Z,5.20
2022-12-26T04:55:32.463Z,5.10
2022-12-26T04:57:59.967Z,5.10
2022-12-26T05:00:28.472Z,5.10
2022-12-26T05:03:19.290Z,5.00
2022-12-26T05:06:08.214Z,5.10
2022-12-26T05:08:57.115Z,5.10
2022-12-26T05:11:24.349Z,5.20
2022-12-26T05:13:55.420Z,5.20
2022-12-26T05:16:41.824Z,5.30
2022-12-26T05:19:31.823Z,5.20
2022-12-26T05:22:18.334Z,5.10
2022-12-26T05:25:04.787Z,5.20
2022-12-26T05:27:55.742Z,5.30
2022-12-26T05:30:23.125Z,5.40
2022-12-26T05:33:08.731Z,5.40
2022-12-26T05:35:35.904Z,5.40
2022-12-26T05:38:03.554Z,5.40
2022-12-26T05:40:30.344Z,5.40
2022-12-26T05:42:57.111Z,5.40
2022-12-26T05:45:23.897Z,5.40
2022-12-26T05:47:52.134Z,5.40
2022-12-26T05:50:19.036Z,5.50
2022-12-26T05:52:45.930Z,5.40
2022-12-26T05:55:12.506Z,5.50
2022-12-26T05:57:39.139Z,5.50
2022-12-26T06:00:06.367Z,5.50
2022-12-26T06:02:33.078Z,5.50
2022-12-26T06:04:59.738Z,5.40
2022-12-26T06:07:27.326Z,5.40
2022-12-26T06:09:53.929Z,5.40
2022-12-26T06:12:20.554Z,5.40
2022-12-26T06:14:47.310Z,5.30
2022-12-26T06:17:14.573Z,5.20
2022-12-26T06:19:46.492Z,5.20
2022-12-26T06:22:13.557Z,5.20
2022-12-26T06:24:40.342Z,5.30
2022-12-26T06:27:07.053Z,5.30
2022-12-26T06:29:33.706Z,5.40
2022-12-26T06:32:00.428Z,5.40
2022-12-26T06:34:30.044Z,5.50
2022-12-26T06:36:56.629Z,5.60
2022-12-26T06:39:24.451Z,5.50
2022-12-26T06:41:51.030Z,5.50
2022-12-26T06:44:18.610Z,5.60
2022-12-26T06:46:46.055Z,5.60
2022-12-26T06:49:12.958Z,5.60
2022-12-26T06:51:39.527Z,5.60
2022-12-26T06:54:06.477Z,5.60
2022-12-26T06:56:34.121Z,5.60
2022-12-26T06:59:03.771Z,5.70
2022-12-26T07:01:33.177Z,5.60
2022-12-26T07:04:00.801Z,5.60
2022-12-26T07:06:36.174Z,5.50
2022-12-26T07:09:14.167Z,5.50
2022-12-26T07:11:44.040Z,5.50
2022-12-26T07:14:10.875Z,5.50
2022-12-26T07:16:38.979Z,5.50
2022-12-26T07:19:07.113Z,5.50
2022-12-26T07:21:40.085Z,5.40
2022-12-26T07:24:08.884Z,5.50
2022-12-26T07:26:35.619Z,5.50
2022-12-26T07:29:02.343Z,5.50
2022-12-26T07:31:29.310Z,5.50
2022-12-26T07:33:56.285Z,5.50
2022-12-26T07:36:25.163Z,5.50
2022-12-26T07:38:52.056Z,5.60
2022-12-26T07:41:37.380Z,5.50
2022-12-26T07:44:05.970Z,5.50
2022-12-26T07:46:33.670Z,5.50
2022-12-26T07:49:00.436Z,5.50
2022-12-26T07:51:27.310Z,5.50
2022-12-26T07:53:54.141Z,5.50
2022-12-26T07:56:20.829Z,5.50
2022-12-26T07:58:51.573Z,5.60
2022-12-26T08:01:18.778Z,5.70
2022-12-26T08:03:48.284Z,5.70
2022-12-26T08:06:15.583Z,5.70
2022-12-26T08:08:48.533Z,5.60
2022-12-26T08:11:20.166Z,5.60
2022-12-26T08:13:46.996Z,5.70
2022-12-26T08:16:14.937Z,5.80
2022-12-26T08:18:42.132Z,5.80
2022-12-26T08:21:09.074Z,5.80
2022-12-26T08:23:35.742Z,5.90
2022-12-26T08:26:11.294Z,5.90
2022-12-26T08:28:38.659Z,5.90
2022-12-26T08:31:06.809Z,6.00
2022-12-26T08:33:33.456Z,6.00
2022-12-26T08:36:08.734Z,6.00
2022-12-26T08:38:36.161Z,6.10
2022-12-26T08:41:03.045Z,6.20
2022-12-26T08:43:45.428Z,6.20
2022-12-26T08:46:17.373Z,6.20
2022-12-26T08:48:44.733Z,6.30
2022-12-26T08:51:23.721Z,6.20
2022-12-26T08:53:52.342Z,6.30
2022-12-26T08:56:21.720Z,6.30
2022-12-26T08:58:48.834Z,6.30
2022-12-26T09:01:21.421Z,6.30
2022-12-26T09:03:51.508Z,6.30
2022-12-26T09:06:18.180Z,6.40
2022-12-26T09:08:44.823Z,6.50
2022-12-26T09:11:14.155Z,6.50
2022-12-26T09:13:42.379Z,6.40
2022-12-26T09:16:15.092Z,6.40
2022-12-26T09:18:42.533Z,6.50
2022-12-26T09:21:11.309Z,6.50
2022-12-26T09:23:39.125Z,6.50
2022-12-26T09:26:11.658Z,6.50
2022-12-26T09:28:38.737Z,6.60
2022-12-26T09:31:08.138Z,6.60
2022-12-26T09:33:37.756Z,6.60
2022-12-26T09:36:12.514Z,6.70
2022-12-26T09:38:41.291Z,6.70
2022-12-26T09:41:34.032Z,6.70
2022-12-26T09:44:23.968Z,6.70
2022-12-26T09:47:06.451Z,6.70
2022-12-26T09:49:50.681Z,6.80
2022-12-26T09:52:23.004Z,6.80
2022-12-26T09:54:53.765Z,6.90
2022-12-26T09:57:26.499Z,6.90
2022-12-26T09:59:58.085Z,7.00
2022-12-26T10:02:26.101Z,6.90
2022-12-26T10:04:54.529Z,7.00
2022-12-26T10:07:46.122Z,7.00
2022-12-26T10:10:39.056Z,7.00
2022-12-26T10:13:27.557Z,7.10
2022-12-26T10:16:11.313Z,7.10
2022-12-26T10:18:53.485Z,7.10
2022-12-26T10:21:20.183Z,7.10
2022-12-26T10:24:02.821Z,7.10
2022-12-26T10:26:34.525Z,7.10
2022-12-26T10:29:04.303Z,7.20
2022-12-26T10:31:46.072Z,7.20
2022-12-26T10:34:36.650Z,7.30
2022-12-26T10:37:28.252Z,7.30
2022-12-26T10:39:57.052Z,7.40
2022-12-26T10:42:26.615Z,7.30
2022-12-26T10:44:53.299Z,7.40
2022-12-26T10:47:30.566Z,7.40
2022-12-26T10:50:00.035Z,7.40
2022-12-26T10:52:32.933Z,7.30
2022-12-26T10:55:27.010Z,7.40
2022-12-26T10:57:52.275Z,7.50
2022-12-26T11:00:26.460Z,7.50
2022-12-26T11:03:14.595Z,7.50
2022-12-26T11:06:09.189Z,7.60
2022-12-26T11:08:49.576Z,7.60
2022-12-26T11:11:46.530Z,7.60
2022-12-26T11:14:33.186Z,7.60
2022-12-26T11:17:05.051Z,7.60
2022-12-26T11:19:43.117Z,7.70
2022-12-26T11:22:23.720Z,7.70
2022-12-26T11:25:09.300Z,7.80
2022-12-26T11:27:42.244Z,7.90
2022-12-26T11:30:17.209Z,8.00
2022-12-26T11:32:47.296Z,8.10
2022-12-26T11:35:26.653Z,8.30
2022-12-26T11:37:57.185Z,8.50
2022-12-26T11:40:35.923Z,8.60
2022-12-26T11:43:06.340Z,8.80
2022-12-26T11:45:42.483Z,8.90
2022-12-26T11:48:23.135Z,9.00
2022-12-26T11:50:50.555Z,9.30
2022-12-26T11:53:20.647Z,9.50
2022-12-26T11:56:02.744Z,9.50
2022-12-26T11:58:31.572Z,9.70
2022-12-26T12:01:01.393Z,9.80
2022-12-26T12:03:37.281Z,9.80
2022-12-26T12:06:16.642Z,9.90
2022-12-26T12:09:03.790Z,9.90
2022-12-26T12:11:44.428Z,10.00
2022-12-26T12:14:20.430Z,10.00
2022-12-26T12:16:54.361Z,10.20
2022-12-26T12:19:29.229Z,10.10
2022-12-26T12:22:15.021Z,10.20
2022-12-26T12:24:50.568Z,10.20
2022-12-26T12:27:41.353Z,10.20
2022-12-26T12:30:19.116Z,10.30
2022-12-26T12:33:08.271Z,10.30
2022-12-26T12:35:57.116Z,10.20
2022-12-26T12:38:42.417Z,10.30
2022-12-26T12:41:47.304Z,10.30
2022-12-26T12:44:32.690Z,10.30
2022-12-26T12:47:26.643Z,10.40
2022-12-26T12:50:18.443Z,10.40
2022-12-26T12:53:25.282Z,10.40
2022-12-26T12:56:41.992Z,10.40
2022-12-26T12:59:24.606Z,10.40
2022-12-26T13:01:55.882Z,10.40
2022-12-26T13:04:43.552Z,10.40
2022-12-26T13:07:16.501Z,10.50
2022-12-26T13:09:50.979Z,10.50
2022-12-26T13:12:31.423Z,10.50
2022-12-26T13:15:02.450Z,10.50
2022-12-26T13:17:37.630Z,10.50
2022-12-26T13:20:18.273Z,10.60
2022-12-26T13:23:20.752Z,10.60
2022-12-26T13:26:02.963Z,10.60
2022-12-26T13:28:36.171Z,10.50
2022-12-26T13:31:03.437Z,10.60
2022-12-26T13:33:30.554Z,10.60
2022-12-26T13:35:59.850Z,10.60
2022-12-26T13:38:58.619Z,10.60
2022-12-26T13:41:45.128Z,10.60
2022-12-26T13:44:20.675Z,10.70
2022-12-26T13:46:47.278Z,10.70
2022-12-26T13:49:36.977Z,10.70
2022-12-26T13:52:14.432Z,10.70
2022-12-26T13:54:47.246Z,10.70
2022-12-26T13:57:36.924Z,10.70
2022-12-26T14:00:12.560Z,10.70
2022-12-26T14:03:22.008Z,10.80
2022-12-26T14:05:59.078Z,10.80
2022-12-26T14:08:40.800Z,10.90
2022-12-26T14:11:31.943Z,10.90
2022-12-26T14:14:10.463Z,10.90
2022-12-26T14:16:48.890Z,10.90
2022-12-26T14:19:42.804Z,10.90
2022-12-26T14:22:19.492Z,10.90
2022-12-26T14:25:37.253Z,10.90
2022-12-26T14:28:26.196Z,10.90
2022-12-26T14:31:09.783Z,10.90
2022-12-26T14:34:13.544Z,10.90
2022-12-26T14:36:43.003Z,10.90
2022-12-26T14:39:22.343Z,10.90
2022-12-26T14:42:25.794Z,10.90
2022-12-26T14:44:57.635Z,10.90
2022-12-26T14:47:44.182Z,10.90
2022-12-26T14:50:32.522Z,10.90
2022-12-26T14:53:30.043Z,10.90
2022-12-26T14:56:10.186Z,10.80
2022-12-26T14:58:46.876Z,10.80
2022-12-26T15:01:13.613Z,10.80
2022-12-26T15:04:07.534Z,10.70
2022-12-26T15:06:55.143Z,10.70
2022-12-26T15:09:52.450Z,10.70
2022-12-26T15:12:40.788Z,10.60
2022-12-26T15:15:26.696Z,10.60
2022-12-26T15:17:56.331Z,10.60
2022-12-26T15:20:44.755Z,10.60
2022-12-26T15:23:31.234Z,10.60
2022-12-26T15:26:16.571Z,10.60
2022-12-26T15:28:52.122Z,10.50
2022-12-26T15:31:45.913Z,10.50
2022-12-26T15:34:45.427Z,10.50
2022-12-26T15:37:18.219Z,10.50
2022-12-26T15:39:55.870Z,10.50
2022-12-26T15:42:50.970Z,10.50
2022-12-26T15:45:36.474Z,10.40
2022-12-26T15:48:34.381Z,10.40
2022-12-26T15:51:13.758Z,10.40
2022-12-26T15:53:58.332Z,10.40
2022-12-26T15:56:58.100Z,10.40
2022-12-26T15:59:52.944Z,10.40
2022-12-26T16:02:25.525Z,10.50
2022-12-26T16:05:23.162Z,10.50
2022-12-26T16:08:00.430Z,10.50
2022-12-26T16:10:35.141Z,10.50
2022-12-26T16:13:14.770Z,10.50
2022-12-26T16:16:00.511Z,10.60
2022-12-26T16:18:30.721Z,10.60
2022-12-26T16:21:20.124Z,10.50
2022-12-26T16:23:49.447Z,10.50
2022-12-26T16:26:25.086Z,10.50
2022-12-26T16:28:53.017Z,10.40
2022-12-26T16:31:31.014Z,10.40
2022-12-26T16:33:59.949Z,10.40
2022-12-26T16:36:28.942Z,10.40
2022-12-26T16:38:56.240Z,10.40
2022-12-26T16:41:29.600Z,10.40
2022-12-26T16:44:05.989Z,10.40
2022-12-26T16:46:33.266Z,10.40
2022-12-26T16:49:01.518Z,10.40
2022-12-26T16:51:40.085Z,10.30
2022-12-26T16:54:17.750Z,10.30
2022-12-26T16:56:49.789Z,10.30
2022-12-26T16:59:23.101Z,10.30
2022-12-26T17:01:58.111Z,10.30
2022-12-26T17:04:27.676Z,10.30
2022-12-26T17:07:08.853Z,10.30
2022-12-26T17:09:46.289Z,10.30
2022-12-26T17:12:47.352Z,10.30
2022-12-26T17:15:24.080Z,10.20
2022-12-26T17:17:50.840Z,10.30
2022-12-26T17:20:23.577Z,10.20
2022-12-26T17:22:54.769Z,10.20
2022-12-26T17:25:29.504Z,10.20
2022-12-26T17:28:08.559Z,10.20
2022-12-26T17:30:46.506Z,10.20
2022-12-26T17:33:20.415Z,10.20
2022-12-26T17:38:44.372Z,10.20
2022-12-26T17:41:15.108Z,10.30
2022-12-26T17:43:43.396Z,10.30
2022-12-26T17:46:13.644Z,10.30
2022-12-26T17:48:41.741Z,10.30
2022-12-26T17:51:14.499Z,10.30
2022-12-26T17:53:42.722Z,10.30
2022-12-26T17:56:22.694Z,10.40
2022-12-26T17:58:50.277Z,10.40
2022-12-26T18:01:21.553Z,10.40
2022-12-26T18:03:49.377Z,10.40
2022-12-26T18:06:16.716Z,10.40
2022-12-26T18:08:44.727Z,10.40
2022-12-26T18:11:12.787Z,10.40
2022-12-26T18:13:39.554Z,10.30
2022-12-26T18:16:07.302Z,10.40
2022-12-26T18:18:35.382Z,10.30
2022-12-26T18:21:03.516Z,10.40
2022-12-26T18:23:30.263Z,10.40
2022-12-26T18:26:00.888Z,10.30
2022-12-26T18:28:28.282Z,10.20
2022-12-26T18:30:57.009Z,10.30
2022-12-26T18:33:24.078Z,10.30
2022-12-26T18:35:50.824Z,10.40
2022-12-26T18:38:19.311Z,10.40
2022-12-26T18:40:48.980Z,10.40
2022-12-26T18:43:15.621Z,10.40
2022-12-26T18:45:43.108Z,10.40
2022-12-26T18:48:14.778Z,10.40
2022-12-26T18:50:41.892Z,10.50
2022-12-26T18:53:08.535Z,10.50
2022-12-26T18:55:35.140Z,10.50
2022-12-26T18:58:01.756Z,10.50
2022-12-26T19:00:28.523Z,10.60
2022-12-26T19:02:55.731Z,10.50
2022-12-26T19:05:27.603Z,10.40
2022-12-26T19:07:55.296Z,10.50
2022-12-26T19:10:24.714Z,10.40
2022-12-26T19:12:51.729Z,10.50
2022-12-26T19:15:18.806Z,10.50
2022-12-26T19:17:45.701Z,10.50
2022-12-26T19:20:21.670Z,10.50
2022-12-26T19:22:49.809Z,10.50
2022-12-26T19:25:17.561Z,10.50
2022-12-26T19:27:45.120Z,10.50
2022-12-26T19:30:13.049Z,10.60
2022-12-26T19:32:40.027Z,10.50
2022-12-26T19:35:07.184Z,10.50
2022-12-26T19:37:33.830Z,10.50
2022-12-26T19:40:00.728Z,10.50
2022-12-26T19:42:27.470Z,10.50
2022-12-26T19:44:54.159Z,10.50
2022-12-26T19:47:20.843Z,10.40
2022-12-26T19:49:47.494Z,10.40
2022-12-26T19:52:14.143Z,10.40
2022-12-26T19:54:40.816Z,10.40
2022-12-26T19:57:07.844Z,10.40
2022-12-26T19:59:34.607Z,10.40
2022-12-26T20:02:01.334Z,10.40
2022-12-26T20:04:28.181Z,10.30
2022-12-26T20:06:58.066Z,10.30
2022-12-26T20:09:24.686Z,10.30
2022-12-26T20:11:51.369Z,10.40
2022-12-26T20:14:19.719Z,10.40
2022-12-26T20:17:08.565Z,10.40
2022-12-26T20:19:36.661Z,10.40
2022-12-26T20:22:04.500Z,10.30
2022-12-26T20:24:31.215Z,10.30
2022-12-26T20:26:57.859Z,10.30
2022-12-26T20:29:24.817Z,10.40
2022-12-26T20:31:55.092Z,10.40
2022-12-26T20:34:21.964Z,10.40
2022-12-26T20:36:48.627Z,10.40
2022-12-26T20:39:17.661Z,10.30
2022-12-26T20:41:44.889Z,10.30
2022-12-26T20:44:13.868Z,10.30
2022-12-26T20:46:41.729Z,10.20
2022-12-26T20:49:09.706Z,10.20
2022-12-26T20:51:38.514Z,10.20
2022-12-26T20:54:09.532Z,10.20
2022-12-26T20:56:37.592Z,10.10
2022-12-26T20:59:05.507Z,10.20
2022-12-26T21:01:32.271Z,10.20
2022-12-26T21:03:59.330Z,10.10
2022-12-26T21:06:29.140Z,10.10
2022-12-26T21:08:57.539Z,10.10
2022-12-26T21:11:29.695Z,10.20
2022-12-26T21:14:01.901Z,10.10
2022-12-26T21:16:50.471Z,10.10
2022-12-26T21:19:17.507Z,10.20
2022-12-26T21:21:50.101Z,10.20
2022-12-26T21:24:19.870Z,10.10
2022-12-26T21:26:47.019Z,10.10
2022-12-26T21:29:17.367Z,10.20
2022-12-26T21:31:44.657Z,10.20
2022-12-26T21:34:14.487Z,10.20
2022-12-26T21:36:41.782Z,10.20
2022-12-26T21:39:10.117Z,10.20
2022-12-26T21:41:37.616Z,10.20
2022-12-26T21:44:04.667Z,10.20
2022-12-26T21:46:31.356Z,10.10
2022-12-26T21:48:57.980Z,10.10
2022-12-26T21:51:25.910Z,10.10
2022-12-26T21:54:12.851Z,10.10
2022-12-26T21:56:39.465Z,10.10
2022-12-26T21:59:24.691Z,10.20
2022-12-26T22:01:51.416Z,10.20
2022-12-26T22:04:20.820Z,10.10
2022-12-26T22:06:49.767Z,10.00
2022-12-26T22:09:17.234Z,9.90
2022-12-26T22:12:03.485Z,9.90
2022-12-26T22:14:30.183Z,9.90
2022-12-26T22:16:57.544Z,9.80
2022-12-26T22:19:24.860Z,9.80
2022-12-26T22:21:52.588Z,9.80
2022-12-26T22:24:19.376Z,9.90
2022-12-26T22:26:45.982Z,9.90
2022-12-26T22:29:12.563Z,9.90
2022-12-26T22:31:39.195Z,9.90
2022-12-26T22:34:10.640Z,9.90
2022-12-26T22:36:37.342Z,9.90
2022-12-26T22:39:04.372Z,9.90
2022-12-26T22:41:32.224Z,9.80
2022-12-26T22:43:58.911Z,9.90
2022-12-26T22:46:25.730Z,9.90
2022-12-26T22:48:52.447Z,9.90
2022-12-26T22:51:22.695Z,9.90
2022-12-26T22:53:52.704Z,9.90
2022-12-26T22:56:19.353Z,9.90
2022-12-26T22:58:45.943Z,9.90
2022-12-26T23:01:17.551Z,9.90
2022-12-26T23:03:44.304Z,9.90
2022-12-26T23:06:29.694Z,9.90
2022-12-26T23:08:59.288Z,9.80
2022-12-26T23:11:35.115Z,9.80
2022-12-26T23:14:07.089Z,9.80
2022-12-26T23:16:50.815Z,9.80
2022-12-26T23:19:41.759Z,9.70
2022-12-26T23:22:08.510Z,9.70
2022-12-26T23:24:35.163Z,9.60
2022-12-26T23:27:25.535Z,9.60
2022-12-26T23:30:11.736Z,9.60
2022-12-26T23:32:40.208Z,9.60
2022-12-26T23:35:08.334Z,9.60
2022-12-26T23:37:35.122Z,9.60
2022-12-26T23:40:01.931Z,9.70
2022-12-26T23:42:28.526Z,9.70
2022-12-26T23:44:55.098Z,9.70
2022-12-26T23:47:21.703Z,9.70
2022-12-26T23:49:48.294Z,9.70
2022-12-26T23:52:14.907Z,9.70
2022-12-26T23:54:41.619Z,9.70
2022-12-26T23:57:08.220Z,9.70
2022-12-26T23:59:35.011Z,9.60
